createdAt,value
2022-08-28T00:00:56.406Z,11.25
2022-08-28T00:05:59.944Z,11.00
2022-08-28T00:11:04.468Z,12.25
2022-08-28T00:16:07.908Z,11.00
2022-08-28T00:21:11.130Z,13.75
2022-08-28T00:26:35.634Z,10.25
2022-08-28T00:31:39.652Z,9.75
2022-08-28T00:36:42.454Z,9.25
2022-08-28T00:41:46.588Z,10.50
2022-08-28T00:46:51.569Z,11.75
2022-08-28T00:52:15.265Z,8.50
2022-08-28T00:57:27.082Z,9.00
2022-08-28T01:02:31.832Z,10.00
2022-08-28T01:07:34.910Z,11.00
2022-08-28T01:12:39.850Z,11.75
2022-08-28T01:17:47.285Z,9.50
2022-08-28T01:22:59.109Z,7.75
2022-08-28T01:28:07.391Z,9.25
2022-08-28T01:33:10.245Z,8.50
2022-08-28T01:38:17.615Z,9.00
2022-08-28T01:43:26.725Z,10.50
2022-08-28T01:48:31.919Z,12.25
2022-08-28T01:53:34.714Z,7.00
2022-08-28T01:58:39.307Z,8.50
2022-08-28T02:03:43.073Z,8.67
2022-08-28T02:08:46.636Z,9.50
2022-08-28T02:13:52.028Z,7.25
2022-08-28T02:18:57.143Z,9.50
2022-08-28T02:23:59.863Z,7.25
2022-08-28T02:29:04.809Z,9.50
2022-08-28T02:34:07.844Z,7.25
2022-08-28T02:39:10.960Z,10.25
2022-08-28T02:44:14.973Z,9.25
2022-08-28T02:49:17.652Z,5.50
2022-08-28T02:54:21.117Z,9.00
2022-08-28T02:59:25.727Z,7.50
2022-08-28T03:04:28.856Z,7.50
2022-08-28T03:09:31.778Z,7.50
2022-08-28T03:14:35.951Z,5.50
2022-08-28T03:19:38.664Z,7.50
2022-08-28T03:24:41.373Z,7.00
2022-08-28T03:29:45.493Z,7.00
2022-08-28T03:34:48.395Z,6.75
2022-08-28T03:39:51.164Z,6.00
2022-08-28T03:44:55.256Z,8.00
2022-08-28T03:49:58.832Z,6.75
2022-08-28T03:55:01.860Z,7.25
2022-08-28T04:00:09.508Z,6.50
2022-08-28T04:05:15.715Z,7.00
2022-08-28T04:10:18.611Z,8.75
2022-08-28T04:15:23.202Z,8.50
2022-08-28T04:20:26.395Z,4.50
2022-08-28T04:25:29.098Z,6.75
2022-08-28T04:30:33.151Z,7.25
2022-08-28T04:35:35.867Z,6.00
2022-08-28T04:40:40.418Z,8.25
2022-08-28T04:45:46.320Z,5.75
2022-08-28T04:50:50.335Z,7.25
2022-08-28T04:55:55.223Z,5.00
2022-08-28T05:00:59.719Z,7.00
2022-08-28T05:06:04.092Z,6.75
2022-08-28T05:11:33.695Z,7.50
2022-08-28T05:16:44.116Z,5.75
2022-08-28T05:21:47.855Z,5.50
2022-08-28T05:26:50.603Z,6.00
2022-08-28T05:31:54.843Z,5.00
2022-08-28T05:36:58.055Z,7.00
2022-08-28T05:42:00.996Z,4.00
2022-08-28T05:47:05.232Z,5.25
2022-08-28T05:52:07.908Z,5.50
2022-08-28T05:57:10.970Z,3.75
2022-08-28T06:02:15.206Z,5.25
2022-08-28T06:07:19.339Z,4.50
2022-08-28T06:12:23.536Z,4.00
2022-08-28T06:17:27.712Z,6.75
2022-08-28T06:22:30.649Z,5.75
2022-08-28T06:27:34.171Z,5.00
2022-08-28T06:32:38.656Z,6.25
2022-08-28T06:37:41.495Z,4.75
2022-08-28T06:42:44.367Z,6.25
2022-08-28T06:47:49.575Z,4.00
2022-08-28T06:52:56.008Z,4.00
2022-08-28T06:57:58.694Z,5.75
2022-08-28T07:03:04.790Z,4.75
2022-08-28T07:08:07.459Z,4.50
2022-08-28T07:13:10.110Z,3.50
2022-08-28T07:18:14.455Z,5.50
2022-08-28T07:23:17.266Z,5.00
2022-08-28T07:28:20.029Z,6.75
2022-08-28T07:33:24.366Z,4.25
2022-08-28T07:38:27.732Z,5.00
2022-08-28T07:43:47.775Z,4.00
2022-08-28T07:48:53.532Z,6.25
2022-08-28T07:53:57.854Z,4.50
2022-08-28T07:59:03.312Z,4.25
2022-08-28T08:04:08.368Z,4.75
2022-08-28T08:09:13.449Z,4.00
2022-08-28T08:14:18.183Z,6.25
2022-08-28T08:19:22.410Z,4.00
2022-08-28T08:24:26.836Z,3.00
2022-08-28T08:29:32.226Z,5.50
2022-08-28T08:34:39.767Z,7.50
2022-08-28T08:39:43.976Z,4.50
2022-08-28T08:44:49.172Z,7.00
2022-08-28T08:50:03.498Z,5.25
2022-08-28T08:55:16.703Z,5.50
2022-08-28T09:00:21.283Z,5.50
2022-08-28T09:05:35.117Z,5.50
2022-08-28T09:10:42.229Z,4.50
2022-08-28T09:15:50.636Z,5.50
2022-08-28T09:20:56.654Z,6.25
2022-08-28T09:26:02.352Z,5.00
2022-08-28T09:31:08.390Z,8.50
2022-08-28T09:36:32.307Z,6.75
2022-08-28T09:41:57.159Z,4.50
2022-08-28T09:46:59.995Z,5.25
2022-08-28T09:52:23.149Z,8.00
2022-08-28T09:57:28.121Z,5.00
2022-08-28T10:02:41.702Z,8.75
2022-08-28T10:07:52.291Z,8.25
2022-08-28T10:13:10.379Z,5.00
2022-08-28T10:18:35.542Z,6.00
2022-08-28T10:23:55.761Z,6.75
2022-08-28T10:29:10.878Z,9.00
2022-08-28T10:34:32.742Z,9.00
2022-08-28T10:39:49.499Z,8.50
2022-08-28T10:44:57.937Z,6.50
2022-08-28T10:50:09.852Z,11.00
2022-08-28T10:55:19.861Z,5.50
2022-08-28T11:00:26.374Z,5.25
2022-08-28T11:05:34.621Z,7.00
2022-08-28T11:10:49.197Z,6.25
2022-08-28T11:15:54.689Z,7.25
2022-08-28T11:21:05.038Z,6.25
2022-08-28T11:26:12.757Z,3.25
2022-08-28T11:31:35.450Z,5.00
2022-08-28T11:37:00.265Z,5.50
2022-08-28T11:42:36.441Z,7.00
2022-08-28T11:47:52.258Z,6.00
2022-08-28T11:53:34.369Z,3.25
2022-08-28T11:58:45.538Z,3.00
2022-08-28T12:03:57.559Z,5.00
2022-08-28T12:09:04.935Z,4.00
2022-08-28T12:14:10.170Z,6.50
2022-08-28T12:19:28.715Z,5.00
2022-08-28T12:24:31.437Z,10.50
2022-08-28T12:29:44.949Z,5.00
2022-08-28T12:34:54.016Z,3.00
2022-08-28T12:40:02.939Z,6.25
2022-08-28T12:45:11.091Z,4.00
2022-08-28T12:50:30.844Z,4.25
2022-08-28T12:55:34.489Z,6.00
2022-08-28T13:00:50.808Z,5.00
2022-08-28T13:06:01.258Z,5.50
2022-08-28T13:11:04.957Z,5.50
2022-08-28T13:16:10.614Z,3.50
2022-08-28T13:21:34.305Z,3.50
2022-08-28T13:26:38.497Z,4.50
2022-08-28T13:31:43.231Z,10.00
2022-08-28T13:36:49.086Z,4.75
2022-08-28T13:41:56.255Z,4.25
2022-08-28T13:47:01.887Z,4.50
2022-08-28T13:52:07.475Z,6.50
2022-08-28T13:57:13.431Z,4.25
2022-08-28T14:02:35.482Z,2.25
2022-08-28T14:07:39.322Z,2.75
2022-08-28T14:12:43.121Z,2.00
2022-08-28T14:17:47.165Z,2.00
2022-08-28T14:22:49.888Z,2.00
2022-08-28T14:27:52.548Z,4.50
2022-08-28T14:32:57.356Z,3.50
2022-08-28T14:38:00.070Z,3.50
2022-08-28T14:43:02.842Z,2.00
2022-08-28T14:48:07.233Z,3.25
2022-08-28T14:53:10.941Z,4.25
2022-08-28T14:58:14.804Z,3.25
2022-08-28T15:03:20.723Z,4.75
2022-08-28T15:08:23.639Z,3.75
2022-08-28T15:13:26.440Z,3.00
2022-08-28T15:18:36.003Z,4.50
2022-08-28T15:23:38.759Z,2.00
2022-08-28T15:28:45.968Z,2.75
2022-08-28T15:33:50.125Z,3.75
2022-08-28T15:39:10.860Z,4.00
2022-08-28T15:44:15.105Z,3.00
2022-08-28T15:49:20.801Z,3.75
2022-08-28T15:54:27.503Z,4.75
2022-08-28T15:59:47.882Z,4.25
2022-08-28T16:04:55.578Z,3.00
2022-08-28T16:09:58.413Z,3.75
2022-08-28T16:15:01.178Z,1.00
2022-08-28T16:20:06.397Z,2.50
2022-08-28T16:25:15.076Z,5.00
2022-08-28T16:30:18.469Z,2.75
2022-08-28T16:35:23.492Z,3.25
2022-08-28T16:40:26.211Z,3.50
2022-08-28T16:45:29.595Z,2.75
2022-08-28T16:50:33.987Z,2.25
2022-08-28T16:55:38.353Z,1.00
2022-08-28T17:00:52.273Z,4.00
2022-08-28T17:06:02.964Z,2.00
2022-08-28T17:11:06.653Z,2.00
2022-08-28T17:16:10.442Z,1.25
2022-08-28T17:21:32.215Z,2.33
2022-08-28T17:26:35.321Z,2.75
2022-08-28T17:31:38.752Z,3.75
2022-08-28T17:36:43.327Z,1.75
2022-08-28T17:41:46.563Z,1.50
2022-08-28T17:46:49.318Z,2.50
2022-08-28T17:51:53.429Z,1.25
2022-08-28T17:56:56.825Z,2.25
2022-08-28T18:01:59.888Z,3.00
2022-08-28T18:07:04.233Z,3.00
2022-08-28T18:12:12.206Z,1.25
2022-08-28T18:17:16.155Z,0.75
2022-08-28T18:22:20.335Z,2.00
2022-08-28T18:27:23.702Z,4.00
2022-08-28T18:32:26.705Z,2.75
2022-08-28T18:37:30.738Z,3.00
2022-08-28T18:42:33.950Z,4.00
2022-08-28T18:47:37.251Z,2.25
2022-08-28T18:52:41.845Z,3.50
2022-08-28T18:57:44.888Z,5.25
2022-08-28T19:02:49.739Z,3.00
2022-08-28T19:07:54.050Z,2.50
2022-08-28T19:12:56.966Z,2.25
2022-08-28T19:18:00.438Z,2.00
2022-08-28T19:23:04.618Z,2.00
2022-08-28T19:28:07.523Z,4.25
2022-08-28T19:33:12.480Z,3.00
2022-08-28T19:38:17.873Z,4.50
2022-08-28T19:43:20.664Z,2.75
2022-08-28T19:48:23.485Z,4.00
2022-08-28T19:53:27.593Z,3.00
2022-08-28T19:58:30.263Z,2.25
2022-08-28T20:03:34.069Z,2.50
2022-08-28T20:08:38.105Z,4.00
2022-08-28T20:13:41.612Z,3.00
2022-08-28T20:18:44.325Z,4.25
2022-08-28T20:23:48.535Z,3.00
2022-08-28T20:28:52.616Z,3.25
2022-08-28T20:33:55.404Z,4.50
2022-08-28T20:38:59.996Z,1.25
2022-08-28T20:44:04.972Z,2.75
2022-08-28T20:49:08.047Z,1.75
2022-08-28T20:54:12.828Z,4.00
2022-08-28T20:59:15.820Z,3.00
2022-08-28T21:04:18.977Z,2.75
2022-08-28T21:09:33.462Z,3.50
2022-08-28T21:14:51.478Z,4.25
2022-08-28T21:19:54.625Z,3.00
2022-08-28T21:24:59.941Z,4.00
2022-08-28T21:30:03.340Z,5.00
2022-08-28T21:35:09.429Z,4.00
2022-08-28T21:40:16.608Z,2.25
2022-08-28T21:45:20.048Z,2.50
2022-08-28T21:50:23.119Z,3.00
2022-08-28T21:55:27.190Z,3.25
2022-08-28T22:00:30.513Z,4.50
2022-08-28T22:05:33.290Z,2.75
2022-08-28T22:10:40.435Z,2.00
2022-08-28T22:15:45.526Z,5.00
2022-08-28T22:21:05.910Z,2.00
2022-08-28T22:26:12.318Z,2.50
2022-08-28T22:31:15.521Z,2.25
2022-08-28T22:36:22.228Z,4.00
2022-08-28T22:41:27.612Z,4.25
2022-08-28T22:46:30.420Z,2.25
2022-08-28T22:51:35.212Z,4.25
2022-08-28T22:56:39.217Z,1.50
2022-08-28T23:01:43.564Z,1.25
2022-08-28T23:06:46.272Z,2.00
2022-08-28T23:11:50.429Z,3.00
2022-08-28T23:16:54.958Z,4.00
2022-08-28T23:21:57.731Z,4.25
2022-08-28T23:27:19.384Z,2.00
2022-08-28T23:32:24.431Z,1.00
2022-08-28T23:37:27.433Z,5.00
2022-08-28T23:42:31.629Z,4.00
2022-08-28T23:47:34.735Z,4.25
2022-08-28T23:52:44.283Z,3.25
2022-08-28T23:57:52.347Z,3.75
